sensor_id;sensor_type;location;lat;lon;timestamp;P1;durP1;ratioP1;P2;durP2;ratioP2
4835;SDS011;2432;51.226;6.904;2022-12-18T00:01:03;20.33;;;8.93;;
4835;SDS011;2432;51.226;6.904;2022-12-18T00:03:32;19.90;;;8.13;;
4835;SDS011;2432;51.226;6.904;2022-12-18T00:06:00;26.50;;;9.20;;
4835;SDS011;2432;51.226;6.904;2022-12-18T00:08:26;20.17;;;8.00;;
4835;SDS011;2432;51.226;6.904;2022-12-18T00:10:54;21.67;;;9.10;;
4835;SDS011;2432;51.226;6.904;2022-12-18T00:13:24;20.50;;;8.57;;
4835;SDS011;2432;51.226;6.904;2022-12-18T00:15:53;21.30;;;8.90;;
4835;SDS011;2432;51.226;6.904;2022-12-18T00:18:21;19.30;;;8.80;;
4835;SDS011;2432;51.226;6.904;2022-12-18T00:20:48;24.40;;;8.97;;
4835;SDS011;2432;51.226;6.904;2022-12-18T00:23:14;20.17;;;9.07;;
4835;SDS011;2432;51.226;6.904;2022-12-18T00:25:41;19.10;;;9.10;;
4835;SDS011;2432;51.226;6.904;2022-12-18T00:28:07;19.73;;;8.33;;
4835;SDS011;2432;51.226;6.904;2022-12-18T00:30:34;17.73;;;8.47;;
4835;SDS011;2432;51.226;6.904;2022-12-18T00:33:00;17.40;;;7.27;;
4835;SDS011;2432;51.226;6.904;2022-12-18T00:35:26;21.63;;;8.33;;
4835;SDS011;2432;51.226;6.904;2022-12-18T00:37:53;19.47;;;8.30;;
4835;SDS011;2432;51.226;6.904;2022-12-18T00:40:20;23.10;;;8.20;;
4835;SDS011;2432;51.226;6.904;2022-12-18T00:42:46;23.03;;;9.67;;
4835;SDS011;2432;51.226;6.904;2022-12-18T00:45:25;21.90;;;8.80;;
4835;SDS011;2432;51.226;6.904;2022-12-18T00:47:54;17.20;;;7.50;;
4835;SDS011;2432;51.226;6.904;2022-12-18T00:50:22;20.37;;;8.80;;
4835;SDS011;2432;51.226;6.904;2022-12-18T00:52:49;20.80;;;8.13;;
4835;SDS011;2432;51.226;6.904;2022-12-18T00:55:16;21.00;;;7.97;;
4835;SDS011;2432;51.226;6.904;2022-12-18T00:57:43;17.53;;;7.40;;
4835;SDS011;2432;51.226;6.904;2022-12-18T01:00:11;19.20;;;8.97;;
4835;SDS011;2432;51.226;6.904;2022-12-18T01:02:40;20.57;;;8.93;;
4835;SDS011;2432;51.226;6.904;2022-12-18T01:05:07;22.70;;;8.60;;
4835;SDS011;2432;51.226;6.904;2022-12-18T01:07:36;20.47;;;8.40;;
4835;SDS011;2432;51.226;6.904;2022-12-18T01:10:02;19.33;;;7.30;;
4835;SDS011;2432;51.226;6.904;2022-12-18T01:12:30;21.93;;;8.20;;
4835;SDS011;2432;51.226;6.904;2022-12-18T01:14:57;21.13;;;7.60;;
4835;SDS011;2432;51.226;6.904;2022-12-18T01:17:23;19.30;;;7.50;;
4835;SDS011;2432;51.226;6.904;2022-12-18T01:19:50;23.93;;;9.30;;
4835;SDS011;2432;51.226;6.904;2022-12-18T01:22:16;22.77;;;7.83;;
4835;SDS011;2432;51.226;6.904;2022-12-18T01:24:43;20.47;;;8.93;;
4835;SDS011;2432;51.226;6.904;2022-12-18T01:27:09;18.37;;;7.53;;
4835;SDS011;2432;51.226;6.904;2022-12-18T01:29:36;19.63;;;8.80;;
4835;SDS011;2432;51.226;6.904;2022-12-18T01:32:02;20.53;;;8.60;;
4835;SDS011;2432;51.226;6.904;2022-12-18T01:34:29;16.97;;;7.70;;
4835;SDS011;2432;51.226;6.904;2022-12-18T01:36:56;23.23;;;9.00;;
4835;SDS011;2432;51.226;6.904;2022-12-18T01:39:22;18.30;;;7.70;;
4835;SDS011;2432;51.226;6.904;2022-12-18T01:41:49;19.50;;;7.43;;
4835;SDS011;2432;51.226;6.904;2022-12-18T01:52:43;20.47;;;8.30;;
4835;SDS011;2432;51.226;6.904;2022-12-18T01:55:14;17.73;;;7.70;;
4835;SDS011;2432;51.226;6.904;2022-12-18T01:57:44;18.30;;;7.80;;
4835;SDS011;2432;51.226;6.904;2022-12-18T02:00:15;19.40;;;8.47;;
4835;SDS011;2432;51.226;6.904;2022-12-18T02:02:46;18.60;;;7.90;;
4835;SDS011;2432;51.226;6.904;2022-12-18T02:05:18;18.90;;;8.33;;
4835;SDS011;2432;51.226;6.904;2022-12-18T02:07:54;20.30;;;7.90;;
4835;SDS011;2432;51.226;6.904;2022-12-18T02:16:10;19.90;;;8.47;;
4835;SDS011;2432;51.226;6.904;2022-12-18T02:18:51;20.77;;;7.60;;
4835;SDS011;2432;51.226;6.904;2022-12-18T02:21:32;21.07;;;7.83;;
4835;SDS011;2432;51.226;6.904;2022-12-18T02:27:05;22.90;;;8.10;;
4835;SDS011;2432;51.226;6.904;2022-12-18T02:29:52;20.00;;;8.30;;
4835;SDS011;2432;51.226;6.904;2022-12-18T02:32:28;20.00;;;8.57;;
4835;SDS011;2432;51.226;6.904;2022-12-18T02:34:58;19.10;;;7.67;;
4835;SDS011;2432;51.226;6.904;2022-12-18T02:37:27;21.50;;;8.30;;
4835;SDS011;2432;51.226;6.904;2022-12-18T02:39:56;19.80;;;9.27;;
4835;SDS011;2432;51.226;6.904;2022-12-18T02:42:24;19.83;;;8.07;;
4835;SDS011;2432;51.226;6.904;2022-12-18T02:44:52;18.73;;;8.60;;
4835;SDS011;2432;51.226;6.904;2022-12-18T02:47:20;19.63;;;7.80;;
4835;SDS011;2432;51.226;6.904;2022-12-18T02:49:53;20.50;;;8.97;;
4835;SDS011;2432;51.226;6.904;2022-12-18T02:52:34;18.07;;;7.17;;
4835;SDS011;2432;51.226;6.904;2022-12-18T02:58:14;16.93;;;7.10;;
4835;SDS011;2432;51.226;6.904;2022-12-18T03:03:24;18.20;;;7.17;;
4835;SDS011;2432;51.226;6.904;2022-12-18T03:06:06;18.30;;;7.20;;
4835;SDS011;2432;51.226;6.904;2022-12-18T03:08:41;15.57;;;7.20;;
4835;SDS011;2432;51.226;6.904;2022-12-18T03:11:11;18.50;;;7.30;;
4835;SDS011;2432;51.226;6.904;2022-12-18T03:16:10;20.00;;;8.33;;
4835;SDS011;2432;51.226;6.904;2022-12-18T03:21:45;20.90;;;7.57;;
4835;SDS011;2432;51.226;6.904;2022-12-18T03:24:15;16.00;;;6.53;;
4835;SDS011;2432;51.226;6.904;2022-12-18T03:26:45;16.33;;;7.20;;
4835;SDS011;2432;51.226;6.904;2022-12-18T03:29:16;17.23;;;7.23;;
4835;SDS011;2432;51.226;6.904;2022-12-18T03:31:49;18.87;;;7.33;;
4835;SDS011;2432;51.226;6.904;2022-12-18T03:34:23;17.07;;;7.03;;
4835;SDS011;2432;51.226;6.904;2022-12-18T03:36:56;20.17;;;7.67;;
4835;SDS011;2432;51.226;6.904;2022-12-18T03:39:22;18.17;;;7.30;;
4835;SDS011;2432;51.226;6.904;2022-12-18T03:41:57;18.90;;;6.87;;
4835;SDS011;2432;51.226;6.904;2022-12-18T03:49:50;16.20;;;7.10;;
4835;SDS011;2432;51.226;6.904;2022-12-18T03:52:29;15.60;;;6.73;;
4835;SDS011;2432;51.226;6.904;2022-12-18T03:55:10;19.63;;;7.20;;
4835;SDS011;2432;51.226;6.904;2022-12-18T03:57:38;16.80;;;7.27;;
4835;SDS011;2432;51.226;6.904;2022-12-18T04:00:07;20.20;;;7.73;;
4835;SDS011;2432;51.226;6.904;2022-12-18T04:02:37;17.93;;;7.50;;
4835;SDS011;2432;51.226;6.904;2022-12-18T04:05:07;16.90;;;7.37;;
4835;SDS011;2432;51.226;6.904;2022-12-18T04:07:36;17.53;;;7.03;;
4835;SDS011;2432;51.226;6.904;2022-12-18T04:10:05;17.97;;;7.53;;
4835;SDS011;2432;51.226;6.904;2022-12-18T04:12:33;16.60;;;6.80;;
4835;SDS011;2432;51.226;6.904;2022-12-18T04:15:00;18.40;;;7.23;;
4835;SDS011;2432;51.226;6.904;2022-12-18T04:17:26;21.00;;;7.80;;
4835;SDS011;2432;51.226;6.904;2022-12-18T04:19:53;19.43;;;6.97;;
4835;SDS011;2432;51.226;6.904;2022-12-18T04:22:19;21.30;;;7.67;;
4835;SDS011;2432;51.226;6.904;2022-12-18T04:24:46;17.10;;;6.80;;
4835;SDS011;2432;51.226;6.904;2022-12-18T04:27:12;18.23;;;7.37;;
4835;SDS011;2432;51.226;6.904;2022-12-18T04:29:39;16.10;;;6.73;;
4835;SDS011;2432;51.226;6.904;2022-12-18T04:32:05;17.83;;;6.57;;
4835;SDS011;2432;51.226;6.904;2022-12-18T04:34:32;16.40;;;6.40;;
4835;SDS011;2432;51.226;6.904;2022-12-18T04:36:58;21.83;;;7.73;;
4835;SDS011;2432;51.226;6.904;2022-12-18T04:39:25;15.90;;;6.30;;
4835;SDS011;2432;51.226;6.904;2022-12-18T04:41:51;16.57;;;7.67;;
4835;SDS011;2432;51.226;6.904;2022-12-18T04:44:18;18.57;;;7.33;;
4835;SDS011;2432;51.226;6.904;2022-12-18T04:46:44;15.80;;;6.80;;
4835;SDS011;2432;51.226;6.904;2022-12-18T04:49:11;15.17;;;6.23;;
4835;SDS011;2432;51.226;6.904;2022-12-18T04:51:37;17.30;;;6.60;;
4835;SDS011;2432;51.226;6.904;2022-12-18T04:54:04;17.63;;;6.87;;
4835;SDS011;2432;51.226;6.904;2022-12-18T04:56:31;15.90;;;6.27;;
4835;SDS011;2432;51.226;6.904;2022-12-18T04:58:58;17.30;;;7.10;;
4835;SDS011;2432;51.226;6.904;2022-12-18T05:01:24;15.97;;;6.27;;
4835;SDS011;2432;51.226;6.904;2022-12-18T05:03:59;16.03;;;6.80;;
4835;SDS011;2432;51.226;6.904;2022-12-18T05:06:26;16.97;;;6.43;;
4835;SDS011;2432;51.226;6.904;2022-12-18T05:08:52;17.43;;;7.80;;
4835;SDS011;2432;51.226;6.904;2022-12-18T05:11:19;15.80;;;6.53;;
4835;SDS011;2432;51.226;6.904;2022-12-18T05:13:45;19.30;;;7.17;;
4835;SDS011;2432;51.226;6.904;2022-12-18T05:16:12;15.63;;;6.10;;
4835;SDS011;2432;51.226;6.904;2022-12-18T05:18:39;16.73;;;7.00;;
4835;SDS011;2432;51.226;6.904;2022-12-18T05:21:06;14.80;;;5.50;;
4835;SDS011;2432;51.226;6.904;2022-12-18T05:23:32;15.80;;;6.43;;
4835;SDS011;2432;51.226;6.904;2022-12-18T05:26:00;16.23;;;6.47;;
4835;SDS011;2432;51.226;6.904;2022-12-18T05:28:29;17.03;;;6.13;;
4835;SDS011;2432;51.226;6.904;2022-12-18T05:30:58;17.17;;;6.60;;
4835;SDS011;2432;51.226;6.904;2022-12-18T05:33:27;15.17;;;6.20;;
4835;SDS011;2432;51.226;6.904;2022-12-18T05:35:57;15.30;;;5.37;;
4835;SDS011;2432;51.226;6.904;2022-12-18T05:38:28;15.87;;;6.17;;
4835;SDS011;2432;51.226;6.904;2022-12-18T05:40:56;16.43;;;6.77;;
4835;SDS011;2432;51.226;6.904;2022-12-18T05:43:24;15.37;;;5.90;;
4835;SDS011;2432;51.226;6.904;2022-12-18T05:45:51;16.80;;;6.20;;
4835;SDS011;2432;51.226;6.904;2022-12-18T05:48:19;16.70;;;6.10;;
4835;SDS011;2432;51.226;6.904;2022-12-18T05:50:47;16.27;;;6.30;;
4835;SDS011;2432;51.226;6.904;2022-12-18T05:53:15;16.87;;;6.13;;
4835;SDS011;2432;51.226;6.904;2022-12-18T05:55:43;18.90;;;6.67;;
4835;SDS011;2432;51.226;6.904;2022-12-18T05:58:11;19.10;;;6.90;;
4835;SDS011;2432;51.226;6.904;2022-12-18T06:00:40;16.23;;;5.70;;
4835;SDS011;2432;51.226;6.904;2022-12-18T06:03:08;15.10;;;5.97;;
4835;SDS011;2432;51.226;6.904;2022-12-18T06:05:36;16.13;;;5.90;;
4835;SDS011;2432;51.226;6.904;2022-12-18T06:08:04;18.97;;;6.63;;
4835;SDS011;2432;51.226;6.904;2022-12-18T06:10:31;15.43;;;5.70;;
4835;SDS011;2432;51.226;6.904;2022-12-18T06:12:58;15.83;;;6.57;;
4835;SDS011;2432;51.226;6.904;2022-12-18T06:15:24;17.03;;;6.70;;
4835;SDS011;2432;51.226;6.904;2022-12-18T06:17:51;15.67;;;6.40;;
4835;SDS011;2432;51.226;6.904;2022-12-18T06:20:17;14.80;;;6.20;;
4835;SDS011;2432;51.226;6.904;2022-12-18T06:22:44;17.20;;;7.10;;
4835;SDS011;2432;51.226;6.904;2022-12-18T06:25:11;16.50;;;7.23;;
4835;SDS011;2432;51.226;6.904;2022-12-18T06:27:38;20.70;;;7.43;;
4835;SDS011;2432;51.226;6.904;2022-12-18T06:30:04;17.50;;;6.87;;
4835;SDS011;2432;51.226;6.904;2022-12-18T06:32:31;18.20;;;7.20;;
4835;SDS011;2432;51.226;6.904;2022-12-18T06:34:58;19.10;;;8.27;;
4835;SDS011;2432;51.226;6.904;2022-12-18T06:37:24;17.70;;;7.50;;
4835;SDS011;2432;51.226;6.904;2022-12-18T06:39:52;18.50;;;7.93;;
4835;SDS011;2432;51.226;6.904;2022-12-18T06:42:19;20.83;;;8.53;;
4835;SDS011;2432;51.226;6.904;2022-12-18T06:44:46;18.40;;;7.70;;
4835;SDS011;2432;51.226;6.904;2022-12-18T06:47:12;19.83;;;8.30;;
4835;SDS011;2432;51.226;6.904;2022-12-18T06:49:39;20.90;;;8.87;;
4835;SDS011;2432;51.226;6.904;2022-12-18T06:52:05;23.90;;;9.53;;
4835;SDS011;2432;51.226;6.904;2022-12-18T06:54:32;20.83;;;8.27;;
4835;SDS011;2432;51.226;6.904;2022-12-18T06:56:58;22.33;;;8.93;;
4835;SDS011;2432;51.226;6.904;2022-12-18T06:59:25;19.10;;;8.27;;
4835;SDS011;2432;51.226;6.904;2022-12-18T07:01:52;18.83;;;8.13;;
4835;SDS011;2432;51.226;6.904;2022-12-18T07:04:19;18.63;;;7.83;;
4835;SDS011;2432;51.226;6.904;2022-12-18T07:06:46;21.63;;;9.27;;
4835;SDS011;2432;51.226;6.904;2022-12-18T07:09:12;20.20;;;8.77;;
4835;SDS011;2432;51.226;6.904;2022-12-18T07:11:39;19.40;;;8.30;;
4835;SDS011;2432;51.226;6.904;2022-12-18T07:14:05;18.83;;;8.00;;
4835;SDS011;2432;51.226;6.904;2022-12-18T07:16:32;18.67;;;8.30;;
4835;SDS011;2432;51.226;6.904;2022-12-18T07:18:58;22.57;;;9.33;;
4835;SDS011;2432;51.226;6.904;2022-12-18T07:21:25;21.50;;;9.20;;
4835;SDS011;2432;51.226;6.904;2022-12-18T07:23:51;19.50;;;7.83;;
4835;SDS011;2432;51.226;6.904;2022-12-18T07:26:19;19.90;;;9.00;;
4835;SDS011;2432;51.226;6.904;2022-12-18T07:28:47;22.77;;;9.03;;
4835;SDS011;2432;51.226;6.904;2022-12-18T07:31:15;20.67;;;9.80;;
4835;SDS011;2432;51.226;6.904;2022-12-18T07:33:45;18.70;;;8.70;;
4835;SDS011;2432;51.226;6.904;2022-12-18T07:36:12;24.43;;;9.30;;
4835;SDS011;2432;51.226;6.904;2022-12-18T07:38:39;20.57;;;8.70;;
4835;SDS011;2432;51.226;6.904;2022-12-18T07:41:07;23.30;;;9.43;;
4835;SDS011;2432;51.226;6.904;2022-12-18T07:43:36;20.60;;;8.60;;
4835;SDS011;2432;51.226;6.904;2022-12-18T07:46:04;23.63;;;9.43;;
4835;SDS011;2432;51.226;6.904;2022-12-18T07:48:31;22.50;;;9.17;;
4835;SDS011;2432;51.226;6.904;2022-12-18T07:51:02;22.33;;;9.33;;
4835;SDS011;2432;51.226;6.904;2022-12-18T07:53:30;20.60;;;8.53;;
4835;SDS011;2432;51.226;6.904;2022-12-18T07:56:07;19.70;;;8.40;;
4835;SDS011;2432;51.226;6.904;2022-12-18T07:58:55;22.20;;;9.53;;
4835;SDS011;2432;51.226;6.904;2022-12-18T08:01:22;22.43;;;9.33;;
4835;SDS011;2432;51.226;6.904;2022-12-18T08:03:49;22.77;;;9.77;;
4835;SDS011;2432;51.226;6.904;2022-12-18T08:06:17;22.40;;;9.73;;
4835;SDS011;2432;51.226;6.904;2022-12-18T08:08:47;20.53;;;9.00;;
4835;SDS011;2432;51.226;6.904;2022-12-18T08:11:15;21.93;;;9.67;;
4835;SDS011;2432;51.226;6.904;2022-12-18T08:13:42;45.20;;;22.40;;
4835;SDS011;2432;51.226;6.904;2022-12-18T08:16:09;36.70;;;15.23;;
4835;SDS011;2432;51.226;6.904;2022-12-18T08:18:36;22.87;;;10.67;;
4835;SDS011;2432;51.226;6.904;2022-12-18T08:21:10;24.13;;;10.17;;
4835;SDS011;2432;51.226;6.904;2022-12-18T08:23:49;32.00;;;11.17;;
4835;SDS011;2432;51.226;6.904;2022-12-18T08:26:17;29.20;;;12.00;;
4835;SDS011;2432;51.226;6.904;2022-12-18T08:28:46;23.00;;;9.77;;
4835;SDS011;2432;51.226;6.904;2022-12-18T08:31:13;26.23;;;10.53;;
4835;SDS011;2432;51.226;6.904;2022-12-18T08:33:40;21.73;;;10.33;;
4835;SDS011;2432;51.226;6.904;2022-12-18T08:36:08;23.80;;;10.07;;
4835;SDS011;2432;51.226;6.904;2022-12-18T08:38:35;23.37;;;10.50;;
4835;SDS011;2432;51.226;6.904;2022-12-18T08:41:03;22.93;;;10.43;;
4835;SDS011;2432;51.226;6.904;2022-12-18T08:43:32;24.00;;;10.40;;
4835;SDS011;2432;51.226;6.904;2022-12-18T08:46:18;23.27;;;11.33;;
4835;SDS011;2432;51.226;6.904;2022-12-18T08:48:46;23.33;;;10.10;;
4835;SDS011;2432;51.226;6.904;2022-12-18T08:51:13;25.87;;;11.67;;
4835;SDS011;2432;51.226;6.904;2022-12-18T08:53:43;23.50;;;10.47;;
4835;SDS011;2432;51.226;6.904;2022-12-18T08:56:10;23.47;;;9.93;;
4835;SDS011;2432;51.226;6.904;2022-12-18T08:58:38;22.83;;;10.63;;
4835;SDS011;2432;51.226;6.904;2022-12-18T09:01:05;22.97;;;10.47;;
4835;SDS011;2432;51.226;6.904;2022-12-18T09:03:35;22.93;;;9.93;;
4835;SDS011;2432;51.226;6.904;2022-12-18T09:06:03;22.27;;;9.70;;
4835;SDS011;2432;51.226;6.904;2022-12-18T09:08:29;23.10;;;9.60;;
4835;SDS011;2432;51.226;6.904;2022-12-18T09:10:56;22.40;;;9.20;;
4835;SDS011;2432;51.226;6.904;2022-12-18T09:13:22;23.10;;;9.97;;
4835;SDS011;2432;51.226;6.904;2022-12-18T09:15:50;28.80;;;10.67;;
4835;SDS011;2432;51.226;6.904;2022-12-18T09:18:19;22.23;;;9.77;;
4835;SDS011;2432;51.226;6.904;2022-12-18T09:20:46;22.10;;;9.03;;
4835;SDS011;2432;51.226;6.904;2022-12-18T09:23:13;22.37;;;10.30;;
4835;SDS011;2432;51.226;6.904;2022-12-18T09:25:40;22.00;;;9.23;;
4835;SDS011;2432;51.226;6.904;2022-12-18T09:28:11;22.47;;;10.07;;
4835;SDS011;2432;51.226;6.904;2022-12-18T09:30:43;23.70;;;10.13;;
4835;SDS011;2432;51.226;6.904;2022-12-18T09:33:11;21.30;;;9.27;;
4835;SDS011;2432;51.226;6.904;2022-12-18T09:35:39;20.80;;;9.10;;
4835;SDS011;2432;51.226;6.904;2022-12-18T09:38:07;22.70;;;9.77;;
4835;SDS011;2432;51.226;6.904;2022-12-18T09:40:36;25.60;;;10.63;;
4835;SDS011;2432;51.226;6.904;2022-12-18T09:43:09;27.43;;;10.57;;
4835;SDS011;2432;51.226;6.904;2022-12-18T09:45:42;23.83;;;11.37;;
4835;SDS011;2432;51.226;6.904;2022-12-18T09:48:56;24.10;;;10.80;;
4835;SDS011;2432;51.226;6.904;2022-12-18T09:51:12;26.40;;;11.60;;
4835;SDS011;2432;51.226;6.904;2022-12-18T09:53:45;24.70;;;11.33;;
4835;SDS011;2432;51.226;6.904;2022-12-18T09:56:17;24.90;;;10.37;;
4835;SDS011;2432;51.226;6.904;2022-12-18T09:58:51;23.10;;;10.43;;
4835;SDS011;2432;51.226;6.904;2022-12-18T10:01:30;25.57;;;12.10;;
4835;SDS011;2432;51.226;6.904;2022-12-18T10:04:09;23.50;;;9.27;;
4835;SDS011;2432;51.226;6.904;2022-12-18T10:06:42;22.50;;;8.37;;
4835;SDS011;2432;51.226;6.904;2022-12-18T10:09:27;26.07;;;10.27;;
4835;SDS011;2432;51.226;6.904;2022-12-18T10:12:21;19.70;;;8.27;;
4835;SDS011;2432;51.226;6.904;2022-12-18T10:20:25;19.10;;;8.53;;
4835;SDS011;2432;51.226;6.904;2022-12-18T10:23:02;23.87;;;10.00;;
4835;SDS011;2432;51.226;6.904;2022-12-18T10:28:14;19.17;;;8.07;;
4835;SDS011;2432;51.226;6.904;2022-12-18T10:30:42;18.73;;;7.90;;
4835;SDS011;2432;51.226;6.904;2022-12-18T10:33:13;20.70;;;8.60;;
4835;SDS011;2432;51.226;6.904;2022-12-18T10:35:43;19.60;;;7.83;;
4835;SDS011;2432;51.226;6.904;2022-12-18T10:40:53;17.10;;;7.40;;
4835;SDS011;2432;51.226;6.904;2022-12-18T10:43:34;20.00;;;8.17;;
4835;SDS011;2432;51.226;6.904;2022-12-18T10:51:20;20.30;;;7.20;;
4835;SDS011;2432;51.226;6.904;2022-12-18T10:53:51;19.80;;;8.27;;
4835;SDS011;2432;51.226;6.904;2022-12-18T10:56:38;21.70;;;8.27;;
4835;SDS011;2432;51.226;6.904;2022-12-18T10:59:07;20.80;;;7.30;;
4835;SDS011;2432;51.226;6.904;2022-12-18T11:01:51;20.20;;;8.70;;
4835;SDS011;2432;51.226;6.904;2022-12-18T11:04:25;19.03;;;7.60;;
4835;SDS011;2432;51.226;6.904;2022-12-18T11:06:55;20.63;;;9.23;;
4835;SDS011;2432;51.226;6.904;2022-12-18T11:09:32;21.27;;;9.17;;
4835;SDS011;2432;51.226;6.904;2022-12-18T11:12:01;18.73;;;7.27;;
4835;SDS011;2432;51.226;6.904;2022-12-18T11:14:49;19.70;;;8.23;;
4835;SDS011;2432;51.226;6.904;2022-12-18T11:17:18;27.83;;;7.40;;
4835;SDS011;2432;51.226;6.904;2022-12-18T11:19:53;21.30;;;8.67;;
4835;SDS011;2432;51.226;6.904;2022-12-18T11:22:28;17.50;;;8.40;;
4835;SDS011;2432;51.226;6.904;2022-12-18T11:25:00;19.27;;;8.17;;
4835;SDS011;2432;51.226;6.904;2022-12-18T11:27:53;20.67;;;8.27;;
4835;SDS011;2432;51.226;6.904;2022-12-18T11:33:01;21.23;;;9.03;;
4835;SDS011;2432;51.226;6.904;2022-12-18T11:38:13;21.20;;;8.80;;
4835;SDS011;2432;51.226;6.904;2022-12-18T11:40:49;23.40;;;9.67;;
4835;SDS011;2432;51.226;6.904;2022-12-18T11:43:26;26.53;;;8.93;;
4835;SDS011;2432;51.226;6.904;2022-12-18T11:46:13;22.50;;;8.63;;
4835;SDS011;2432;51.226;6.904;2022-12-18T11:51:35;21.43;;;8.67;;
4835;SDS011;2432;51.226;6.904;2022-12-18T11:54:15;22.70;;;9.80;;
4835;SDS011;2432;51.226;6.904;2022-12-18T11:57:29;21.37;;;10.07;;
4835;SDS011;2432;51.226;6.904;2022-12-18T12:17:16;23.77;;;9.73;;
4835;SDS011;2432;51.226;6.904;2022-12-18T12:25:11;24.30;;;10.27;;
4835;SDS011;2432;51.226;6.904;2022-12-18T12:27:57;20.50;;;9.43;;
4835;SDS011;2432;51.226;6.904;2022-12-18T12:39:12;21.17;;;9.37;;
4835;SDS011;2432;51.226;6.904;2022-12-18T12:41:42;21.20;;;9.40;;
4835;SDS011;2432;51.226;6.904;2022-12-18T12:44:32;23.37;;;10.33;;
4835;SDS011;2432;51.226;6.904;2022-12-18T12:47:16;24.60;;;10.83;;
4835;SDS011;2432;51.226;6.904;2022-12-18T12:49:48;27.23;;;10.90;;
4835;SDS011;2432;51.226;6.904;2022-12-18T12:52:24;22.30;;;10.03;;
4835;SDS011;2432;51.226;6.904;2022-12-18T12:54:57;26.20;;;10.07;;
4835;SDS011;2432;51.226;6.904;2022-12-18T12:57:34;20.97;;;9.90;;
4835;SDS011;2432;51.226;6.904;2022-12-18T13:00:09;26.30;;;11.97;;
4835;SDS011;2432;51.226;6.904;2022-12-18T13:02:42;27.50;;;13.90;;
4835;SDS011;2432;51.226;6.904;2022-12-18T13:08:02;27.60;;;12.23;;
4835;SDS011;2432;51.226;6.904;2022-12-18T13:10:39;26.87;;;11.63;;
4835;SDS011;2432;51.226;6.904;2022-12-18T13:13:08;28.33;;;13.47;;
4835;SDS011;2432;51.226;6.904;2022-12-18T13:15:42;36.67;;;15.80;;
4835;SDS011;2432;51.226;6.904;2022-12-18T13:18:16;22.63;;;11.20;;
4835;SDS011;2432;51.226;6.904;2022-12-18T13:20:51;27.57;;;12.97;;
4835;SDS011;2432;51.226;6.904;2022-12-18T13:23:31;32.30;;;14.77;;
4835;SDS011;2432;51.226;6.904;2022-12-18T13:34:15;31.20;;;15.10;;
4835;SDS011;2432;51.226;6.904;2022-12-18T13:36:54;28.57;;;12.93;;
4835;SDS011;2432;51.226;6.904;2022-12-18T13:39:42;26.30;;;13.10;;
4835;SDS011;2432;51.226;6.904;2022-12-18T13:48:20;31.23;;;13.50;;
4835;SDS011;2432;51.226;6.904;2022-12-18T13:50:49;29.77;;;14.00;;
4835;SDS011;2432;51.226;6.904;2022-12-18T13:53:21;28.97;;;13.60;;
4835;SDS011;2432;51.226;6.904;2022-12-18T13:55:51;32.47;;;14.87;;
4835;SDS011;2432;51.226;6.904;2022-12-18T13:58:18;27.47;;;13.00;;
4835;SDS011;2432;51.226;6.904;2022-12-18T14:00:45;29.60;;;13.50;;
4835;SDS011;2432;51.226;6.904;2022-12-18T14:03:25;27.90;;;12.50;;
4835;SDS011;2432;51.226;6.904;2022-12-18T14:05:55;28.87;;;12.73;;
4835;SDS011;2432;51.226;6.904;2022-12-18T14:08:27;29.10;;;13.43;;
4835;SDS011;2432;51.226;6.904;2022-12-18T14:11:00;29.87;;;13.83;;
4835;SDS011;2432;51.226;6.904;2022-12-18T14:13:29;27.93;;;11.90;;
4835;SDS011;2432;51.226;6.904;2022-12-18T14:16:00;26.70;;;12.53;;
4835;SDS011;2432;51.226;6.904;2022-12-18T14:21:26;28.20;;;13.20;;
4835;SDS011;2432;51.226;6.904;2022-12-18T14:26:45;26.90;;;13.23;;
4835;SDS011;2432;51.226;6.904;2022-12-18T14:29:22;30.53;;;13.30;;
4835;SDS011;2432;51.226;6.904;2022-12-18T14:34:41;31.60;;;13.00;;
4835;SDS011;2432;51.226;6.904;2022-12-18T14:37:11;32.80;;;14.23;;
4835;SDS011;2432;51.226;6.904;2022-12-18T14:39:39;24.70;;;12.03;;
4835;SDS011;2432;51.226;6.904;2022-12-18T14:42:09;32.23;;;14.47;;
4835;SDS011;2432;51.226;6.904;2022-12-18T14:44:37;31.23;;;14.57;;
4835;SDS011;2432;51.226;6.904;2022-12-18T14:47:24;32.57;;;13.50;;
4835;SDS011;2432;51.226;6.904;2022-12-18T14:49:50;32.17;;;13.60;;
4835;SDS011;2432;51.226;6.904;2022-12-18T14:52:25;30.13;;;14.07;;
4835;SDS011;2432;51.226;6.904;2022-12-18T14:54:55;36.57;;;12.90;;
4835;SDS011;2432;51.226;6.904;2022-12-18T14:57:22;44.67;;;16.10;;
4835;SDS011;2432;51.226;6.904;2022-12-18T14:59:51;31.10;;;14.37;;
4835;SDS011;2432;51.226;6.904;2022-12-18T15:02:27;33.17;;;15.00;;
4835;SDS011;2432;51.226;6.904;2022-12-18T15:05:03;29.37;;;13.43;;
4835;SDS011;2432;51.226;6.904;2022-12-18T15:07:46;31.47;;;14.23;;
4835;SDS011;2432;51.226;6.904;2022-12-18T15:10:18;28.67;;;13.43;;
4835;SDS011;2432;51.226;6.904;2022-12-18T15:20:55;34.63;;;15.63;;
4835;SDS011;2432;51.226;6.904;2022-12-18T15:23:30;31.40;;;14.43;;
4835;SDS011;2432;51.226;6.904;2022-12-18T15:26:05;32.10;;;13.90;;
4835;SDS011;2432;51.226;6.904;2022-12-18T15:33:44;29.30;;;13.97;;
4835;SDS011;2432;51.226;6.904;2022-12-18T15:36:26;34.10;;;14.83;;
4835;SDS011;2432;51.226;6.904;2022-12-18T15:38:53;31.77;;;15.03;;
4835;SDS011;2432;51.226;6.904;2022-12-18T15:41:31;30.70;;;14.73;;
4835;SDS011;2432;51.226;6.904;2022-12-18T15:44:01;35.13;;;15.90;;
4835;SDS011;2432;51.226;6.904;2022-12-18T15:46:29;30.60;;;14.80;;
4835;SDS011;2432;51.226;6.904;2022-12-18T15:48:57;34.70;;;15.30;;
4835;SDS011;2432;51.226;6.904;2022-12-18T15:51:31;32.80;;;14.83;;
4835;SDS011;2432;51.226;6.904;2022-12-18T15:54:01;30.70;;;14.80;;
4835;SDS011;2432;51.226;6.904;2022-12-18T15:56:32;33.87;;;15.80;;
4835;SDS011;2432;51.226;6.904;2022-12-18T15:59:18;34.23;;;15.80;;
4835;SDS011;2432;51.226;6.904;2022-12-18T16:01:47;34.00;;;16.10;;
4835;SDS011;2432;51.226;6.904;2022-12-18T16:04:16;33.50;;;16.70;;
4835;SDS011;2432;51.226;6.904;2022-12-18T16:06:46;34.90;;;15.97;;
4835;SDS011;2432;51.226;6.904;2022-12-18T16:09:33;33.03;;;16.63;;
4835;SDS011;2432;51.226;6.904;2022-12-18T16:12:00;34.27;;;16.70;;
4835;SDS011;2432;51.226;6.904;2022-12-18T16:14:28;35.30;;;17.00;;
4835;SDS011;2432;51.226;6.904;2022-12-18T16:17:00;37.90;;;17.70;;
4835;SDS011;2432;51.226;6.904;2022-12-18T16:19:28;31.87;;;15.57;;
4835;SDS011;2432;51.226;6.904;2022-12-18T16:21:56;33.33;;;17.20;;
4835;SDS011;2432;51.226;6.904;2022-12-18T16:24:27;32.83;;;15.90;;
4835;SDS011;2432;51.226;6.904;2022-12-18T16:26:56;34.40;;;16.47;;
4835;SDS011;2432;51.226;6.904;2022-12-18T16:29:25;36.03;;;17.53;;
4835;SDS011;2432;51.226;6.904;2022-12-18T16:31:54;36.50;;;18.40;;
4835;SDS011;2432;51.226;6.904;2022-12-18T16:34:39;35.30;;;17.13;;
4835;SDS011;2432;51.226;6.904;2022-12-18T16:37:07;38.47;;;18.47;;
4835;SDS011;2432;51.226;6.904;2022-12-18T16:39:35;43.90;;;19.23;;
4835;SDS011;2432;51.226;6.904;2022-12-18T16:42:04;39.20;;;18.20;;
4835;SDS011;2432;51.226;6.904;2022-12-18T16:44:34;40.50;;;17.20;;
4835;SDS011;2432;51.226;6.904;2022-12-18T16:47:02;42.17;;;18.10;;
4835;SDS011;2432;51.226;6.904;2022-12-18T16:49:30;39.57;;;19.20;;
4835;SDS011;2432;51.226;6.904;2022-12-18T16:51:56;41.90;;;19.70;;
4835;SDS011;2432;51.226;6.904;2022-12-18T16:54:23;40.67;;;19.40;;
4835;SDS011;2432;51.226;6.904;2022-12-18T16:56:50;41.47;;;19.40;;
4835;SDS011;2432;51.226;6.904;2022-12-18T16:59:17;42.00;;;19.00;;
4835;SDS011;2432;51.226;6.904;2022-12-18T17:01:45;40.07;;;19.10;;
4835;SDS011;2432;51.226;6.904;2022-12-18T17:04:12;41.07;;;19.20;;
4835;SDS011;2432;51.226;6.904;2022-12-18T17:06:39;41.93;;;18.97;;
4835;SDS011;2432;51.226;6.904;2022-12-18T17:09:11;43.93;;;19.30;;
4835;SDS011;2432;51.226;6.904;2022-12-18T17:11:40;43.40;;;21.10;;
4835;SDS011;2432;51.226;6.904;2022-12-18T17:14:12;45.63;;;20.97;;
4835;SDS011;2432;51.226;6.904;2022-12-18T17:16:41;39.77;;;18.70;;
4835;SDS011;2432;51.226;6.904;2022-12-18T17:19:07;38.97;;;19.13;;
4835;SDS011;2432;51.226;6.904;2022-12-18T17:21:42;38.00;;;19.07;;
4835;SDS011;2432;51.226;6.904;2022-12-18T17:24:10;37.67;;;18.70;;